Delta, Utah Weather observations

Data are for observation ending at time listed.
 Day   Time    Ave.   Ave.  Ave.  Vector   Max.   Stn.    Total    Solar   Ave.  
  of    of     Air    Rel.  Wind   Wind    Wind   Baro.  Precip.   Rad.    Soil  
Year   Day     Temp.  Hum.  Speed  Dir.    Gust   Pres.                    Temp. 
2015   (MST)    F      %     mph   deg.    mph     mb.     in.     W/m2     F   
------------------------------------------------------------------------------
  57   22:40   35.7    65    1.6    32      4.8   856.3    0.00       0    99999.0
  57   22:50   35.5    65    0.8   348      1.4   856.2    0.00       0    99999.0
  57   23:00   35.6    65    1.0   348      2.1   856.2    0.00       0    99999.0
  57   23:10   35.8    66    0.5   334      2.0   856.2    0.00       0    99999.0
  57   23:20   35.9    66    0.1   283      1.1   856.1    0.00       0    99999.0
  57   23:30   35.8    67    0.3   286      1.4   856.1    0.00       0    99999.0
  57   23:40   35.7    67    0.3   278      1.2   856.0    0.00       0    99999.0
  57   23:50   35.8    67    1.1   277      1.7   855.9    0.00       0    99999.0
  58    0:00   35.7    67    0.6   270      1.7   855.9    0.00       0    99999.0
  58    0:10   35.2    68    1.1   205      1.8   855.8    0.00       0    99999.0
  58    0:20   34.7    68    1.5   201      2.8   855.7    0.00       0    99999.0
  58    0:30   34.2    68    0.3   204      1.1   855.6    0.00       0    99999.0
  58    0:40   34.1    69    0.5   207      1.3   855.5    0.00       0    99999.0
  58    0:50   34.0    69    1.1   216      1.8   855.5    0.00       0    99999.0
  58    1:00   33.6    70    0.3   136      1.5   855.5    0.00       0    99999.0
  58    1:10   33.0    70    1.2   121      2.1   855.5    0.00       0    99999.0
  58    1:20   32.0    71    0.6   135      2.0   855.4    0.00       0    99999.0
  58    1:30   31.4    72    0.2    68      1.3   855.4    0.00       0    99999.0
  58    1:40   30.9    73    1.3   137      2.8   855.4    0.00       0    99999.0
  58    1:50   30.8    73    0.0     0      0.0   855.4    0.00       0    99999.0
  58    2:00   30.7    74    0.3   275      1.3   855.4    0.00       0    99999.0
  58    2:10   30.8    73    0.2   322      1.2   855.4    0.00       0    99999.0
  58    2:20   30.5    74    0.4   274      1.7   855.4    0.00       0    99999.0
  58    2:30   29.8    74    1.2   111      2.9   855.4    0.00       0    99999.0
  58    2:40   29.5    75    0.5   115      1.4   855.3    0.00       0    99999.0
  58    2:50   29.0    75    0.6    92      0.9   855.2    0.00       0    99999.0
  58    3:00   28.5    75    1.0    78      2.4   855.1    0.00       0    99999.0
  58    3:10   27.7    75    1.4    98      2.3   855.1    0.00       0    99999.0
  58    3:20   27.6    76    0.6    95      1.2   855.1    0.00       0    99999.0
  58    3:30   27.8    76    1.4   121      2.0   855.0    0.00       0    99999.0
  58    3:40   27.8    77    1.5   121      2.6   854.8    0.00       0    99999.0
  58    3:50   27.7    77    1.4   128      2.5   854.7    0.00       0    99999.0
  58    4:00   28.1    77    0.8   123      1.8   854.6    0.00       0    99999.0
  58    4:10   28.1    77    2.1   136      3.3   854.6    0.00       0    99999.0
  58    4:20   28.0    77    1.4   119      2.5   854.5    0.00       0    99999.0
  58    4:30   28.3    77    0.2    63      0.7   854.5    0.00       0    99999.0
  58    4:40   28.5    77    0.5    76      1.8   854.4    0.00       0    99999.0
  58    4:50   28.6    77    1.4   115      2.4   854.4    0.00       0    99999.0
  58    5:00   28.7    76    2.0   141      3.2   854.4    0.00       0    99999.0
  58    5:10   28.9    77    0.8   143      1.8   854.5    0.00       0    99999.0
  58    5:20   28.9    76    1.6   144      3.1   854.4    0.00       0    99999.0
  58    5:30   28.8    76    0.4   139      0.9   854.3    0.00       0    99999.0
  58    5:40   28.8    77    1.1   134      1.8   854.3    0.00       0    99999.0
  58    5:50   28.9    77    1.1   122      1.8   854.3    0.00       0    99999.0
  58    6:00   29.1    77    0.8   140      1.7   854.2    0.00       0    99999.0
  58    6:10   29.3    77    0.5   140      1.2   854.2    0.00       0    99999.0
  58    6:20   29.4    77    1.3   143      2.6   854.2    0.00       0    99999.0
  58    6:30   29.4    76    1.6   162      2.5   854.2    0.00       0    99999.0
  58    6:40   29.4    77    1.6   138      2.9   854.1    0.00       0    99999.0
  58    6:50   29.3    77    2.0   152      3.3   854.1    0.00       0    99999.0
  58    7:00   29.3    77    1.8   163      2.8   854.0    0.00       0    99999.0
  58    7:10   29.4    76    1.9   173      3.1   854.0    0.00       0    99999.0
  58    7:20   29.3    76    1.5   170      2.9   854.0    0.00       6    99999.0
  58    7:30   28.8    76    1.9   167      2.9   854.0    0.00      10    99999.0
  58    7:40   28.3    77    1.8   163      2.8   853.9    0.00      21    99999.0
  58    7:50   28.3    77    1.9   155      2.9   854.0    0.00      32    99999.0
  58    8:00   28.5    77    2.7   151      4.3   853.9    0.00      44    99999.0
  58    8:10   28.8    77    2.6   154      4.5   854.0    0.00      54    99999.0
  58    8:20   29.3    76    2.4   160      3.6   854.0    0.00      66    99999.0
  58    8:30   29.9    76    3.2   160      5.3   854.0    0.00      76    99999.0
  58    8:40   30.1    75    3.4   150      5.1   854.0    0.00      70    99999.0
  58    8:50   30.4    74    2.6   154      4.2   854.0    0.00      45    99999.0
  58    9:00   31.4    73    2.0   162      3.7   854.0    0.00     144    99999.0
  58    9:10   32.7    71    3.3   147      5.2   854.0    0.00     193    99999.0
  58    9:20   33.6    70    3.5   164      6.1   853.9    0.00     296    99999.0
  58    9:30   35.0    67    3.7   175      6.1   854.0    0.00     318    99999.0
  58    9:40   35.7    66    4.3   169      7.2   853.9    0.00     352    99999.0
  58    9:50   36.6    64    3.8   176      6.4   853.9    0.00     236    99999.0
  58   10:00   36.6    64    3.6   180      7.0   853.9    0.00     261    99999.0
  58   10:10   37.5    62    3.0   186      5.5   853.9    0.00     253    99999.0
  58   10:20   38.6    61    2.6   218      5.0   853.9    0.00     279    99999.0
  58   10:30   39.9    58    2.9   187      5.1   853.9    0.00     373    99999.0
  58   10:40   40.3    56    2.5   182      5.3   853.8    0.00     339    99999.0
  58   10:50   39.7    56    2.9   198      6.1   853.8    0.00     294    99999.0
  58   11:00   40.7    54    2.1   173      5.3   853.7    0.00     471    99999.0
  58   11:10   41.3    52    2.2   231      5.8   853.6    0.00     451    99999.0
  58   11:20   41.4    50    2.6   264      5.1   853.5    0.00     417    99999.0
  58   11:30   41.5    49    2.2   236      4.5   853.4    0.00     446    99999.0
  58   11:40   42.5    48    2.7   162      6.5   853.3    0.00     331    99999.0
  58   11:50   42.1    47    3.1   233      7.4   853.1    0.00     547    99999.0
  58   12:00   42.4    46    2.8   158      7.2   853.0    0.00     491    99999.0
  58   12:10   42.8    43    2.8   177      7.0   852.8    0.00     558    99999.0
  58   12:20   43.3    41    2.3   188      6.7   852.6    0.00     528    99999.0
  58   12:30   43.8    40    3.4   153      7.2   852.4    0.00     557    99999.0
  58   12:40   43.7    39    3.1   150      7.1   852.2    0.00     567    99999.0
  58   12:50   44.1    39    2.4   160      7.0   851.9    0.00     599    99999.0
  58   13:00   44.3    39    3.3    60      7.5   851.7    0.00     599    99999.0
  58   13:10   45.3    36    3.3   244      7.8   851.5    0.00     585    99999.0
  58   13:20   44.6    36    4.1   276      6.9   851.3    0.00     550    99999.0
  58   13:30   44.8    36    2.8   208      6.9   851.1    0.00     571    99999.0
  58   13:40   45.2    34    3.1    83      6.9   850.9    0.00     566    99999.0
  58   13:50   45.5    33    2.0    73      5.8   850.6    0.00     561    99999.0
  58   14:00   46.1    32    2.3    50      5.0   850.4    0.00     450    99999.0
  58   14:10   46.3    30    3.6   289      6.3   850.2    0.00     543    99999.0
  58   14:20   46.7    29    1.7   318      5.5   850.1    0.00     470    99999.0
  58   14:30   46.9    28    4.1   325      7.2   849.9    0.00     521    99999.0
  58   14:40   46.5    28    3.4   340      6.4   849.8    0.00     507    99999.0
  58   14:50   47.2    28    4.1   286     10.2   849.7    0.00     441    99999.0
  58   15:00   45.9    29    3.2   276      6.4   849.6    0.00     122    99999.0
  58   15:10   45.6    30    2.3   280      5.7   849.5    0.00     104    99999.0
  58   15:20   45.7    30    1.8   264      4.4   849.4    0.00     133    99999.0
  58   15:30   45.9    28    2.5   344      5.4   849.4    0.00     131    99999.0
  58   15:40   46.4    28    1.7   260      4.3   849.3    0.00     123    99999.0
  58   15:50   45.9    28    2.2   181      4.2   849.3    0.00     145    99999.0
  58   16:00   46.6    27    2.5   157      6.0   849.1    0.00     294    99999.0
  58   16:10   48.0    27    3.5    31      8.0   849.1    0.00     320    99999.0
  58   16:20   48.2    26    3.1    54      6.7   849.0    0.00     374    99999.0
  58   16:30   48.8    25    2.7    45      5.3   848.9    0.00     266    99999.0
  58   16:40   48.7    24    1.9   141      5.3   848.9    0.00     218    99999.0
  58   16:50   48.2    26    1.6    70      4.5   848.8    0.00     146    99999.0
  58   17:00   47.0    28    3.0    24      7.2   848.8    0.00     104    99999.0
  58   17:10   46.4    28    2.1    16      5.0   848.8    0.00      43    99999.0
  58   17:20   45.9    28    1.4    14      3.7   848.7    0.00      38    99999.0
  58   17:30   45.7    28    2.3    15      4.5   848.7    0.00      44    99999.0
  58   17:40   45.4    29    3.2    39      6.2   848.7    0.00      39    99999.0
  58   17:50   45.1    29    2.5    23      5.1   848.8    0.00      28    99999.0
  58   18:00   44.9    30    1.9    56      3.6   848.8    0.00      24    99999.0
  58   18:10   44.4    30    2.2    52      3.9   848.8    0.00      13    99999.0
  58   18:20   43.9    30    1.9    55      3.0   848.8    0.00       6    99999.0
  58   18:30   43.4    31    1.9    57      3.9   848.8    0.00       1    99999.0
  58   18:40   42.8    32    2.0    57      3.8   848.8    0.00       0    99999.0
  58   18:50   42.1    33    2.4    55      4.7   848.8    0.00       0    99999.0
  58   19:00   41.0    38    3.9    58      6.9   848.9    0.00       0    99999.0
  58   19:10   39.8    45    3.9    54      7.5   849.0    0.00       0    99999.0
  58   19:20   39.3    48    3.8    57      6.8   849.0    0.00       0    99999.0
  58   19:30   39.0    49    3.9    60      7.6   848.9    0.00       0    99999.0
  58   19:40   38.6    50    3.5    59      7.7   848.9    0.00       0    99999.0
  58   19:50   38.0    51    3.8    63      7.1   848.9    0.00       0    99999.0
  58   20:00   37.8    50    3.7    58      6.7   848.8    0.00       0    99999.0
  58   20:10   37.4    49    3.3    62      6.5   848.8    0.00       0    99999.0
  58   20:20   37.2    48    3.8    59      7.0   848.8    0.00       0    99999.0
  58   20:30   36.7    49    3.4    54      5.6   848.8    0.00       0    99999.0
  58   20:40   36.3    50    3.6    56      6.4   848.8    0.00       0    99999.0
  58   20:50   36.3    49    2.7    66      6.2   848.8    0.00       0    99999.0
  58   21:00   36.1    51    3.3    56      6.9   848.7    0.00       0    99999.0
  58   21:10   36.1    51    3.3    58      6.3   848.7    0.00       0    99999.0
  58   21:20   35.9    52    3.0    59      6.3   848.7    0.00       0    99999.0
  58   21:30   35.5    52    3.4    52      6.2   848.8    0.00       0    99999.0
  58   21:40   35.2    53    2.7    57      5.7   848.8    0.00       0    99999.0
  58   21:50   35.1    52    2.7    56      6.5   848.7    0.00       0    99999.0
  58   22:00   34.9    53    3.9    52      6.3   848.7    0.00       0    99999.0
  58   22:10   34.6    53    3.1    52      5.8   848.7    0.00       0    99999.0
  58   22:20   34.4    54    2.2    36      4.6   848.6    0.00       0    99999.0
  58   22:30   34.3    53    2.0    45      5.2   848.6    0.00       0    99999.0

Return to Delta, Utah graphs page.


Western Regional Climate Center,wrcc@dri.edu